sensor_id;sensor_type;location;lat;lon;timestamp;P1;durP1;ratioP1;P2;durP2;ratioP2
4835;SDS011;66719;51.226;6.902;2023-06-22T00:00:49;12.83;;;4.20;;
4835;SDS011;66719;51.226;6.902;2023-06-22T00:03:17;11.03;;;3.90;;
4835;SDS011;66719;51.226;6.902;2023-06-22T00:05:48;11.43;;;4.30;;
4835;SDS011;66719;51.226;6.902;2023-06-22T00:08:15;14.23;;;3.70;;
4835;SDS011;66719;51.226;6.902;2023-06-22T00:10:43;19.90;;;5.27;;
4835;SDS011;66719;51.226;6.902;2023-06-22T00:13:10;11.63;;;4.33;;
4835;SDS011;66719;51.226;6.902;2023-06-22T00:15:38;12.33;;;3.47;;
4835;SDS011;66719;51.226;6.902;2023-06-22T00:18:09;11.20;;;3.83;;
4835;SDS011;66719;51.226;6.902;2023-06-22T00:20:36;12.83;;;4.27;;
4835;SDS011;66719;51.226;6.902;2023-06-22T00:23:04;10.83;;;3.50;;
4835;SDS011;66719;51.226;6.902;2023-06-22T00:25:35;12.30;;;3.57;;
4835;SDS011;66719;51.226;6.902;2023-06-22T00:28:19;9.53;;;3.33;;
4835;SDS011;66719;51.226;6.902;2023-06-22T00:30:46;10.50;;;3.50;;
4835;SDS011;66719;51.226;6.902;2023-06-22T00:33:13;10.30;;;3.30;;
4835;SDS011;66719;51.226;6.902;2023-06-22T00:35:40;13.60;;;4.07;;
4835;SDS011;66719;51.226;6.902;2023-06-22T00:38:08;12.93;;;3.90;;
4835;SDS011;66719;51.226;6.902;2023-06-22T00:40:35;10.87;;;3.67;;
4835;SDS011;66719;51.226;6.902;2023-06-22T00:43:01;11.37;;;4.50;;
4835;SDS011;66719;51.226;6.902;2023-06-22T00:45:28;10.17;;;3.30;;
4835;SDS011;66719;51.226;6.902;2023-06-22T00:47:58;13.23;;;4.10;;
4835;SDS011;66719;51.226;6.902;2023-06-22T00:50:27;11.43;;;4.03;;
4835;SDS011;66719;51.226;6.902;2023-06-22T00:53:01;16.97;;;4.47;;
4835;SDS011;66719;51.226;6.902;2023-06-22T00:55:36;12.20;;;4.17;;
4835;SDS011;66719;51.226;6.902;2023-06-22T00:58:08;11.57;;;4.03;;
4835;SDS011;66719;51.226;6.902;2023-06-22T01:00:37;13.90;;;5.07;;
4835;SDS011;66719;51.226;6.902;2023-06-22T01:03:05;13.03;;;4.43;;
4835;SDS011;66719;51.226;6.902;2023-06-22T01:05:36;12.50;;;4.80;;
4835;SDS011;66719;51.226;6.902;2023-06-22T01:08:29;15.63;;;4.50;;
4835;SDS011;66719;51.226;6.902;2023-06-22T01:11:39;11.80;;;4.27;;
4835;SDS011;66719;51.226;6.902;2023-06-22T01:13:56;13.43;;;5.00;;
4835;SDS011;66719;51.226;6.902;2023-06-22T01:16:30;12.70;;;4.77;;
4835;SDS011;66719;51.226;6.902;2023-06-22T01:19:00;12.90;;;4.73;;
4835;SDS011;66719;51.226;6.902;2023-06-22T01:21:31;13.20;;;5.40;;
4835;SDS011;66719;51.226;6.902;2023-06-22T01:29:22;16.57;;;5.23;;
4835;SDS011;66719;51.226;6.902;2023-06-22T01:31:50;16.87;;;5.93;;
4835;SDS011;66719;51.226;6.902;2023-06-22T01:34:19;16.27;;;5.70;;
4835;SDS011;66719;51.226;6.902;2023-06-22T01:36:48;12.07;;;4.87;;
4835;SDS011;66719;51.226;6.902;2023-06-22T01:39:15;12.07;;;4.50;;
4835;SDS011;66719;51.226;6.902;2023-06-22T01:41:43;16.87;;;5.20;;
4835;SDS011;66719;51.226;6.902;2023-06-22T01:44:10;14.60;;;6.43;;
4835;SDS011;66719;51.226;6.902;2023-06-22T01:46:38;16.90;;;6.80;;
4835;SDS011;66719;51.226;6.902;2023-06-22T01:49:06;13.53;;;6.37;;
4835;SDS011;66719;51.226;6.902;2023-06-22T01:51:33;13.60;;;6.00;;
4835;SDS011;66719;51.226;6.902;2023-06-22T01:54:00;13.30;;;5.90;;
4835;SDS011;66719;51.226;6.902;2023-06-22T01:56:27;14.23;;;5.47;;
4835;SDS011;66719;51.226;6.902;2023-06-22T01:59:00;11.80;;;4.73;;
4835;SDS011;66719;51.226;6.902;2023-06-22T02:01:42;15.37;;;5.90;;
4835;SDS011;66719;51.226;6.902;2023-06-22T02:04:18;14.93;;;5.40;;
4835;SDS011;66719;51.226;6.902;2023-06-22T02:06:48;14.40;;;6.20;;
4835;SDS011;66719;51.226;6.902;2023-06-22T02:09:20;15.13;;;5.87;;
4835;SDS011;66719;51.226;6.902;2023-06-22T02:11:50;18.00;;;5.60;;
4835;SDS011;66719;51.226;6.902;2023-06-22T02:14:21;17.00;;;6.57;;
4835;SDS011;66719;51.226;6.902;2023-06-22T02:16:50;15.03;;;6.77;;
4835;SDS011;66719;51.226;6.902;2023-06-22T02:19:22;15.13;;;5.53;;
4835;SDS011;66719;51.226;6.902;2023-06-22T02:21:49;14.60;;;6.27;;
4835;SDS011;66719;51.226;6.902;2023-06-22T02:24:15;13.67;;;6.03;;
4835;SDS011;66719;51.226;6.902;2023-06-22T02:26:42;14.53;;;5.33;;
4835;SDS011;66719;51.226;6.902;2023-06-22T02:29:11;13.80;;;5.70;;
4835;SDS011;66719;51.226;6.902;2023-06-22T02:31:38;16.13;;;5.77;;
4835;SDS011;66719;51.226;6.902;2023-06-22T02:34:04;11.73;;;5.37;;
4835;SDS011;66719;51.226;6.902;2023-06-22T02:36:31;14.43;;;5.47;;
4835;SDS011;66719;51.226;6.902;2023-06-22T02:38:59;14.10;;;6.40;;
4835;SDS011;66719;51.226;6.902;2023-06-22T02:41:27;16.00;;;6.03;;
4835;SDS011;66719;51.226;6.902;2023-06-22T02:43:54;13.50;;;5.37;;
4835;SDS011;66719;51.226;6.902;2023-06-22T02:46:21;13.80;;;6.00;;
4835;SDS011;66719;51.226;6.902;2023-06-22T02:48:47;13.47;;;6.33;;
4835;SDS011;66719;51.226;6.902;2023-06-22T02:51:14;16.40;;;5.60;;
4835;SDS011;66719;51.226;6.902;2023-06-22T02:53:41;18.03;;;5.87;;
4835;SDS011;66719;51.226;6.902;2023-06-22T02:56:10;16.40;;;6.93;;
4835;SDS011;66719;51.226;6.902;2023-06-22T02:58:39;16.37;;;6.60;;
4835;SDS011;66719;51.226;6.902;2023-06-22T03:01:05;14.70;;;6.77;;
4835;SDS011;66719;51.226;6.902;2023-06-22T03:03:32;14.80;;;6.10;;
4835;SDS011;66719;51.226;6.902;2023-06-22T03:05:59;14.97;;;5.70;;
4835;SDS011;66719;51.226;6.902;2023-06-22T03:08:27;13.10;;;5.60;;
4835;SDS011;66719;51.226;6.902;2023-06-22T03:10:55;15.50;;;6.07;;
4835;SDS011;66719;51.226;6.902;2023-06-22T03:13:22;15.93;;;6.07;;
4835;SDS011;66719;51.226;6.902;2023-06-22T03:15:48;13.90;;;5.37;;
4835;SDS011;66719;51.226;6.902;2023-06-22T03:18:15;13.33;;;5.60;;
4835;SDS011;66719;51.226;6.902;2023-06-22T03:20:42;20.23;;;5.70;;
4835;SDS011;66719;51.226;6.902;2023-06-22T03:23:08;17.43;;;6.20;;
4835;SDS011;66719;51.226;6.902;2023-06-22T03:25:35;15.40;;;6.67;;
4835;SDS011;66719;51.226;6.902;2023-06-22T03:28:02;13.20;;;5.43;;
4835;SDS011;66719;51.226;6.902;2023-06-22T03:30:28;17.77;;;7.23;;
4835;SDS011;66719;51.226;6.902;2023-06-22T03:32:55;14.30;;;6.00;;
4835;SDS011;66719;51.226;6.902;2023-06-22T03:35:22;14.30;;;5.97;;
4835;SDS011;66719;51.226;6.902;2023-06-22T03:37:49;14.30;;;5.93;;
4835;SDS011;66719;51.226;6.902;2023-06-22T03:40:15;15.63;;;6.10;;
4835;SDS011;66719;51.226;6.902;2023-06-22T03:42:42;15.80;;;6.47;;
4835;SDS011;66719;51.226;6.902;2023-06-22T03:45:09;14.30;;;5.80;;
4835;SDS011;66719;51.226;6.902;2023-06-22T03:47:35;14.37;;;5.90;;
4835;SDS011;66719;51.226;6.902;2023-06-22T03:50:02;17.37;;;6.33;;
4835;SDS011;66719;51.226;6.902;2023-06-22T03:52:30;12.67;;;5.87;;
4835;SDS011;66719;51.226;6.902;2023-06-22T03:54:56;13.80;;;5.70;;
4835;SDS011;66719;51.226;6.902;2023-06-22T03:57:23;13.80;;;5.03;;
4835;SDS011;66719;51.226;6.902;2023-06-22T03:59:50;13.77;;;6.07;;
4835;SDS011;66719;51.226;6.902;2023-06-22T04:02:16;14.10;;;5.90;;
4835;SDS011;66719;51.226;6.902;2023-06-22T04:04:43;16.33;;;6.13;;
4835;SDS011;66719;51.226;6.902;2023-06-22T04:07:10;14.17;;;5.20;;
4835;SDS011;66719;51.226;6.902;2023-06-22T04:09:36;15.73;;;6.00;;
4835;SDS011;66719;51.226;6.902;2023-06-22T04:12:03;14.93;;;5.53;;
4835;SDS011;66719;51.226;6.902;2023-06-22T04:14:30;12.93;;;5.00;;
4835;SDS011;66719;51.226;6.902;2023-06-22T04:16:57;13.90;;;5.13;;
4835;SDS011;66719;51.226;6.902;2023-06-22T04:19:24;13.77;;;6.30;;
4835;SDS011;66719;51.226;6.902;2023-06-22T04:21:51;12.80;;;5.20;;
4835;SDS011;66719;51.226;6.902;2023-06-22T04:24:17;13.17;;;5.80;;
4835;SDS011;66719;51.226;6.902;2023-06-22T04:26:44;15.27;;;5.37;;
4835;SDS011;66719;51.226;6.902;2023-06-22T04:29:11;13.73;;;5.37;;
4835;SDS011;66719;51.226;6.902;2023-06-22T04:31:38;13.70;;;5.70;;
4835;SDS011;66719;51.226;6.902;2023-06-22T04:34:06;17.40;;;6.03;;
4835;SDS011;66719;51.226;6.902;2023-06-22T04:36:34;16.03;;;6.23;;
4835;SDS011;66719;51.226;6.902;2023-06-22T04:39:09;16.53;;;5.63;;
4835;SDS011;66719;51.226;6.902;2023-06-22T04:41:37;17.30;;;5.63;;
4835;SDS011;66719;51.226;6.902;2023-06-22T04:44:12;17.00;;;5.70;;
4835;SDS011;66719;51.226;6.902;2023-06-22T04:46:39;15.50;;;5.60;;
4835;SDS011;66719;51.226;6.902;2023-06-22T04:49:07;15.80;;;6.10;;
4835;SDS011;66719;51.226;6.902;2023-06-22T04:51:37;17.80;;;5.67;;
4835;SDS011;66719;51.226;6.902;2023-06-22T04:54:05;14.60;;;6.53;;
4835;SDS011;66719;51.226;6.902;2023-06-22T04:56:32;20.10;;;6.50;;
4835;SDS011;66719;51.226;6.902;2023-06-22T04:58:59;16.00;;;6.77;;
4835;SDS011;66719;51.226;6.902;2023-06-22T05:01:26;16.43;;;7.03;;
4835;SDS011;66719;51.226;6.902;2023-06-22T05:03:52;18.20;;;7.60;;
4835;SDS011;66719;51.226;6.902;2023-06-22T05:06:22;21.53;;;7.40;;
4835;SDS011;66719;51.226;6.902;2023-06-22T05:08:52;22.63;;;8.20;;
4835;SDS011;66719;51.226;6.902;2023-06-22T05:11:24;20.90;;;8.20;;
4835;SDS011;66719;51.226;6.902;2023-06-22T05:13:54;20.97;;;7.97;;
4835;SDS011;66719;51.226;6.902;2023-06-22T05:16:21;23.53;;;8.37;;
4835;SDS011;66719;51.226;6.902;2023-06-22T05:18:53;17.27;;;8.17;;
4835;SDS011;66719;51.226;6.902;2023-06-22T05:21:21;16.93;;;8.10;;
4835;SDS011;66719;51.226;6.902;2023-06-22T05:23:53;19.63;;;8.00;;
4835;SDS011;66719;51.226;6.902;2023-06-22T05:26:20;15.10;;;7.20;;
4835;SDS011;66719;51.226;6.902;2023-06-22T05:28:47;15.87;;;7.70;;
4835;SDS011;66719;51.226;6.902;2023-06-22T05:31:14;14.47;;;6.60;;
4835;SDS011;66719;51.226;6.902;2023-06-22T05:33:42;18.13;;;7.90;;
4835;SDS011;66719;51.226;6.902;2023-06-22T05:36:09;15.90;;;6.70;;
4835;SDS011;66719;51.226;6.902;2023-06-22T05:38:36;15.13;;;6.93;;
4835;SDS011;66719;51.226;6.902;2023-06-22T05:41:03;21.37;;;6.53;;
4835;SDS011;66719;51.226;6.902;2023-06-22T05:43:30;14.67;;;6.70;;
4835;SDS011;66719;51.226;6.902;2023-06-22T05:45:57;15.77;;;7.40;;
4835;SDS011;66719;51.226;6.902;2023-06-22T05:48:24;15.77;;;7.30;;
4835;SDS011;66719;51.226;6.902;2023-06-22T05:50:51;15.10;;;6.90;;
4835;SDS011;66719;51.226;6.902;2023-06-22T05:53:17;14.03;;;6.73;;
4835;SDS011;66719;51.226;6.902;2023-06-22T05:55:44;15.40;;;7.40;;
4835;SDS011;66719;51.226;6.902;2023-06-22T05:58:10;15.17;;;7.60;;
4835;SDS011;66719;51.226;6.902;2023-06-22T06:00:37;15.00;;;6.60;;
4835;SDS011;66719;51.226;6.902;2023-06-22T06:03:03;14.87;;;7.27;;
4835;SDS011;66719;51.226;6.902;2023-06-22T06:05:30;16.90;;;7.70;;
4835;SDS011;66719;51.226;6.902;2023-06-22T06:07:58;19.90;;;6.93;;
4835;SDS011;66719;51.226;6.902;2023-06-22T06:10:26;15.30;;;7.57;;
4835;SDS011;66719;51.226;6.902;2023-06-22T06:12:53;14.80;;;7.40;;
4835;SDS011;66719;51.226;6.902;2023-06-22T06:15:19;23.60;;;9.70;;
4835;SDS011;66719;51.226;6.902;2023-06-22T06:17:46;14.90;;;7.57;;
4835;SDS011;66719;51.226;6.902;2023-06-22T06:20:14;17.23;;;8.00;;
4835;SDS011;66719;51.226;6.902;2023-06-22T06:22:40;18.70;;;8.43;;
4835;SDS011;66719;51.226;6.902;2023-06-22T06:25:09;15.37;;;7.83;;
4835;SDS011;66719;51.226;6.902;2023-06-22T06:27:35;17.97;;;9.10;;
4835;SDS011;66719;51.226;6.902;2023-06-22T06:30:03;18.40;;;8.30;;
4835;SDS011;66719;51.226;6.902;2023-06-22T06:32:30;15.53;;;7.67;;
4835;SDS011;66719;51.226;6.902;2023-06-22T06:34:57;17.47;;;8.00;;
4835;SDS011;66719;51.226;6.902;2023-06-22T06:37:23;15.00;;;7.50;;
4835;SDS011;66719;51.226;6.902;2023-06-22T06:39:50;26.80;;;15.30;;
4835;SDS011;66719;51.226;6.902;2023-06-22T06:42:16;24.27;;;13.60;;
4835;SDS011;66719;51.226;6.902;2023-06-22T06:44:43;19.90;;;10.67;;
4835;SDS011;66719;51.226;6.902;2023-06-22T06:47:09;19.07;;;8.80;;
4835;SDS011;66719;51.226;6.902;2023-06-22T06:49:36;18.07;;;9.03;;
4835;SDS011;66719;51.226;6.902;2023-06-22T06:52:03;22.37;;;8.20;;
4835;SDS011;66719;51.226;6.902;2023-06-22T06:54:30;23.00;;;9.77;;
4835;SDS011;66719;51.226;6.902;2023-06-22T06:56:56;19.97;;;11.20;;
4835;SDS011;66719;51.226;6.902;2023-06-22T06:59:23;23.30;;;10.83;;
4835;SDS011;66719;51.226;6.902;2023-06-22T07:01:49;22.77;;;10.63;;
4835;SDS011;66719;51.226;6.902;2023-06-22T07:04:16;22.10;;;10.50;;
4835;SDS011;66719;51.226;6.902;2023-06-22T07:06:43;21.17;;;11.40;;
4835;SDS011;66719;51.226;6.902;2023-06-22T07:09:09;23.63;;;12.20;;
4835;SDS011;66719;51.226;6.902;2023-06-22T07:11:36;35.60;;;20.13;;
4835;SDS011;66719;51.226;6.902;2023-06-22T07:14:02;34.87;;;16.27;;
4835;SDS011;66719;51.226;6.902;2023-06-22T07:16:29;43.87;;;20.47;;
4835;SDS011;66719;51.226;6.902;2023-06-22T07:18:57;33.10;;;15.13;;
4835;SDS011;66719;51.226;6.902;2023-06-22T07:21:24;29.03;;;15.00;;
4835;SDS011;66719;51.226;6.902;2023-06-22T07:23:50;32.33;;;17.13;;
4835;SDS011;66719;51.226;6.902;2023-06-22T07:26:17;28.07;;;15.23;;
4835;SDS011;66719;51.226;6.902;2023-06-22T07:28:43;33.50;;;15.40;;
4835;SDS011;66719;51.226;6.902;2023-06-22T07:31:10;24.27;;;14.47;;
4835;SDS011;66719;51.226;6.902;2023-06-22T07:33:37;31.30;;;14.70;;
4835;SDS011;66719;51.226;6.902;2023-06-22T07:36:03;30.90;;;17.80;;
4835;SDS011;66719;51.226;6.902;2023-06-22T07:38:34;24.43;;;14.00;;
4835;SDS011;66719;51.226;6.902;2023-06-22T07:41:03;24.67;;;13.90;;
4835;SDS011;66719;51.226;6.902;2023-06-22T07:43:32;24.50;;;15.90;;
4835;SDS011;66719;51.226;6.902;2023-06-22T07:46:00;30.33;;;17.30;;
4835;SDS011;66719;51.226;6.902;2023-06-22T07:48:27;24.23;;;14.07;;
4835;SDS011;66719;51.226;6.902;2023-06-22T07:50:54;22.90;;;12.10;;
4835;SDS011;66719;51.226;6.902;2023-06-22T07:53:21;19.27;;;11.20;;
4835;SDS011;66719;51.226;6.902;2023-06-22T07:55:49;19.07;;;12.33;;
4835;SDS011;66719;51.226;6.902;2023-06-22T07:58:16;24.03;;;12.37;;
4835;SDS011;66719;51.226;6.902;2023-06-22T08:00:45;19.07;;;11.43;;
4835;SDS011;66719;51.226;6.902;2023-06-22T08:03:12;19.87;;;11.23;;
4835;SDS011;66719;51.226;6.902;2023-06-22T08:05:38;18.60;;;11.70;;
4835;SDS011;66719;51.226;6.902;2023-06-22T08:08:05;18.20;;;10.17;;
4835;SDS011;66719;51.226;6.902;2023-06-22T08:10:32;19.67;;;11.43;;
4835;SDS011;66719;51.226;6.902;2023-06-22T08:12:58;20.80;;;11.30;;
4835;SDS011;66719;51.226;6.902;2023-06-22T08:15:26;18.97;;;11.93;;
4835;SDS011;66719;51.226;6.902;2023-06-22T08:20:25;30.40;;;20.73;;
4835;SDS011;66719;51.226;6.902;2023-06-22T08:22:53;19.90;;;11.80;;
4835;SDS011;66719;51.226;6.902;2023-06-22T08:25:20;18.70;;;10.30;;
4835;SDS011;66719;51.226;6.902;2023-06-22T08:27:47;18.30;;;10.63;;
4835;SDS011;66719;51.226;6.902;2023-06-22T08:30:15;17.87;;;10.63;;
4835;SDS011;66719;51.226;6.902;2023-06-22T08:32:42;18.80;;;11.33;;
4835;SDS011;66719;51.226;6.902;2023-06-22T08:35:08;21.13;;;12.57;;
4835;SDS011;66719;51.226;6.902;2023-06-22T08:37:36;29.80;;;12.13;;
4835;SDS011;66719;51.226;6.902;2023-06-22T08:40:03;19.97;;;11.10;;
4835;SDS011;66719;51.226;6.902;2023-06-22T08:42:32;22.00;;;11.40;;
4835;SDS011;66719;51.226;6.902;2023-06-22T08:44:58;20.00;;;12.20;;
4835;SDS011;66719;51.226;6.902;2023-06-22T08:47:25;23.77;;;11.47;;
4835;SDS011;66719;51.226;6.902;2023-06-22T08:49:53;20.80;;;11.40;;
4835;SDS011;66719;51.226;6.902;2023-06-22T08:52:20;22.20;;;11.73;;
4835;SDS011;66719;51.226;6.902;2023-06-22T08:54:47;23.00;;;14.67;;
4835;SDS011;66719;51.226;6.902;2023-06-22T08:57:14;17.13;;;10.00;;
4835;SDS011;66719;51.226;6.902;2023-06-22T08:59:40;18.43;;;11.90;;
4835;SDS011;66719;51.226;6.902;2023-06-22T09:02:08;16.50;;;10.17;;
4835;SDS011;66719;51.226;6.902;2023-06-22T09:07:06;19.17;;;10.30;;
4835;SDS011;66719;51.226;6.902;2023-06-22T09:09:32;18.50;;;10.43;;
4835;SDS011;66719;51.226;6.902;2023-06-22T09:11:59;15.90;;;9.27;;
4835;SDS011;66719;51.226;6.902;2023-06-22T09:14:26;16.53;;;9.90;;
4835;SDS011;66719;51.226;6.902;2023-06-22T09:16:52;16.90;;;9.47;;
4835;SDS011;66719;51.226;6.902;2023-06-22T09:19:19;16.10;;;9.83;;
4835;SDS011;66719;51.226;6.902;2023-06-22T09:21:45;16.47;;;9.23;;
4835;SDS011;66719;51.226;6.902;2023-06-22T09:24:12;16.80;;;9.17;;
4835;SDS011;66719;51.226;6.902;2023-06-22T09:26:39;14.53;;;8.10;;
4835;SDS011;66719;51.226;6.902;2023-06-22T09:29:06;17.03;;;9.00;;
4835;SDS011;66719;51.226;6.902;2023-06-22T09:31:32;21.63;;;14.00;;
4835;SDS011;66719;51.226;6.902;2023-06-22T09:33:59;16.20;;;7.63;;
4835;SDS011;66719;51.226;6.902;2023-06-22T09:36:26;14.40;;;8.30;;
4835;SDS011;66719;51.226;6.902;2023-06-22T09:39:01;16.17;;;8.43;;
4835;SDS011;66719;51.226;6.902;2023-06-22T09:41:32;16.10;;;8.20;;
4835;SDS011;66719;51.226;6.902;2023-06-22T09:43:58;17.33;;;7.87;;
4835;SDS011;66719;51.226;6.902;2023-06-22T09:46:25;15.80;;;7.53;;
4835;SDS011;66719;51.226;6.902;2023-06-22T09:48:51;16.90;;;8.40;;
4835;SDS011;66719;51.226;6.902;2023-06-22T09:51:18;14.87;;;8.33;;
4835;SDS011;66719;51.226;6.902;2023-06-22T09:53:47;16.47;;;8.53;;
4835;SDS011;66719;51.226;6.902;2023-06-22T09:56:14;13.97;;;7.90;;
4835;SDS011;66719;51.226;6.902;2023-06-22T09:58:45;15.93;;;8.30;;
4835;SDS011;66719;51.226;6.902;2023-06-22T10:01:13;13.93;;;7.67;;
4835;SDS011;66719;51.226;6.902;2023-06-22T10:03:42;14.60;;;7.90;;
4835;SDS011;66719;51.226;6.902;2023-06-22T10:06:09;14.77;;;8.00;;
4835;SDS011;66719;51.226;6.902;2023-06-22T10:08:35;14.70;;;7.00;;
4835;SDS011;66719;51.226;6.902;2023-06-22T10:11:03;27.77;;;18.53;;
4835;SDS011;66719;51.226;6.902;2023-06-22T10:13:30;21.20;;;12.40;;
4835;SDS011;66719;51.226;6.902;2023-06-22T10:15:56;18.37;;;9.70;;
4835;SDS011;66719;51.226;6.902;2023-06-22T10:18:23;18.50;;;8.07;;
4835;SDS011;66719;51.226;6.902;2023-06-22T10:20:50;15.70;;;7.57;;
4835;SDS011;66719;51.226;6.902;2023-06-22T10:23:18;13.90;;;7.10;;
4835;SDS011;66719;51.226;6.902;2023-06-22T10:25:45;13.73;;;7.90;;
4835;SDS011;66719;51.226;6.902;2023-06-22T10:28:12;14.30;;;7.77;;
4835;SDS011;66719;51.226;6.902;2023-06-22T10:30:39;14.63;;;7.53;;
4835;SDS011;66719;51.226;6.902;2023-06-22T10:33:10;30.33;;;16.93;;
4835;SDS011;66719;51.226;6.902;2023-06-22T10:35:38;19.37;;;11.00;;
4835;SDS011;66719;51.226;6.902;2023-06-22T10:38:05;18.90;;;9.23;;
4835;SDS011;66719;51.226;6.902;2023-06-22T10:40:32;16.10;;;8.67;;
4835;SDS011;66719;51.226;6.902;2023-06-22T10:42:59;18.00;;;8.93;;
4835;SDS011;66719;51.226;6.902;2023-06-22T10:45:26;19.07;;;8.90;;
4835;SDS011;66719;51.226;6.902;2023-06-22T10:47:54;17.97;;;9.47;;
4835;SDS011;66719;51.226;6.902;2023-06-22T10:50:21;21.13;;;8.97;;
4835;SDS011;66719;51.226;6.902;2023-06-22T10:52:50;18.63;;;10.57;;
4835;SDS011;66719;51.226;6.902;2023-06-22T10:55:17;28.20;;;12.00;;
4835;SDS011;66719;51.226;6.902;2023-06-22T10:57:43;21.13;;;10.80;;
4835;SDS011;66719;51.226;6.902;2023-06-22T11:00:13;21.43;;;11.37;;
4835;SDS011;66719;51.226;6.902;2023-06-22T11:02:42;20.40;;;11.80;;
4835;SDS011;66719;51.226;6.902;2023-06-22T11:05:09;24.83;;;13.37;;
4835;SDS011;66719;51.226;6.902;2023-06-22T11:07:36;28.50;;;13.50;;
4835;SDS011;66719;51.226;6.902;2023-06-22T11:10:08;43.00;;;17.87;;
4835;SDS011;66719;51.226;6.902;2023-06-22T11:12:35;50.27;;;18.30;;
4835;SDS011;66719;51.226;6.902;2023-06-22T11:15:02;37.23;;;16.33;;
4835;SDS011;66719;51.226;6.902;2023-06-22T11:17:29;21.77;;;11.00;;
4835;SDS011;66719;51.226;6.902;2023-06-22T11:19:55;18.30;;;7.87;;
4835;SDS011;66719;51.226;6.902;2023-06-22T11:22:22;17.10;;;8.50;;
4835;SDS011;66719;51.226;6.902;2023-06-22T11:24:48;20.50;;;9.30;;
4835;SDS011;66719;51.226;6.902;2023-06-22T11:27:15;18.13;;;8.70;;
4835;SDS011;66719;51.226;6.902;2023-06-22T11:29:41;14.10;;;7.30;;
4835;SDS011;66719;51.226;6.902;2023-06-22T11:32:08;16.13;;;7.60;;
4835;SDS011;66719;51.226;6.902;2023-06-22T11:34:37;17.47;;;7.83;;
4835;SDS011;66719;51.226;6.902;2023-06-22T11:37:04;16.67;;;8.27;;
4835;SDS011;66719;51.226;6.902;2023-06-22T11:39:30;21.73;;;10.57;;
4835;SDS011;66719;51.226;6.902;2023-06-22T11:42:06;23.10;;;10.70;;
4835;SDS011;66719;51.226;6.902;2023-06-22T11:44:33;24.60;;;12.90;;
4835;SDS011;66719;51.226;6.902;2023-06-22T11:46:59;23.70;;;12.00;;
4835;SDS011;66719;51.226;6.902;2023-06-22T11:49:27;36.13;;;13.70;;
4835;SDS011;66719;51.226;6.902;2023-06-22T11:51:53;23.87;;;13.33;;
4835;SDS011;66719;51.226;6.902;2023-06-22T11:54:20;27.70;;;14.70;;
4835;SDS011;66719;51.226;6.902;2023-06-22T11:56:46;22.60;;;12.93;;
4835;SDS011;66719;51.226;6.902;2023-06-22T11:59:13;24.07;;;13.27;;
4835;SDS011;66719;51.226;6.902;2023-06-22T12:01:39;26.20;;;15.10;;
4835;SDS011;66719;51.226;6.902;2023-06-22T12:04:06;26.53;;;15.90;;
4835;SDS011;66719;51.226;6.902;2023-06-22T12:06:33;26.37;;;16.97;;
4835;SDS011;66719;51.226;6.902;2023-06-22T12:08:59;26.43;;;16.80;;
4835;SDS011;66719;51.226;6.902;2023-06-22T12:11:26;26.77;;;18.40;;
4835;SDS011;66719;51.226;6.902;2023-06-22T12:13:53;30.47;;;18.40;;
4835;SDS011;66719;51.226;6.902;2023-06-22T12:16:19;29.20;;;18.60;;
4835;SDS011;66719;51.226;6.902;2023-06-22T12:18:48;28.00;;;17.73;;
4835;SDS011;66719;51.226;6.902;2023-06-22T12:21:14;25.33;;;18.27;;
4835;SDS011;66719;51.226;6.902;2023-06-22T12:23:41;28.10;;;18.80;;
4835;SDS011;66719;51.226;6.902;2023-06-22T12:26:07;29.10;;;17.23;;
4835;SDS011;66719;51.226;6.902;2023-06-22T12:28:34;29.07;;;18.10;;
4835;SDS011;66719;51.226;6.902;2023-06-22T12:31:00;30.27;;;17.80;;
4835;SDS011;66719;51.226;6.902;2023-06-22T12:33:27;24.53;;;16.03;;
4835;SDS011;66719;51.226;6.902;2023-06-22T12:35:53;23.30;;;15.40;;
4835;SDS011;66719;51.226;6.902;2023-06-22T12:38:20;24.80;;;16.63;;
4835;SDS011;66719;51.226;6.902;2023-06-22T12:40:46;27.70;;;17.00;;
4835;SDS011;66719;51.226;6.902;2023-06-22T12:43:15;27.20;;;17.00;;
4835;SDS011;66719;51.226;6.902;2023-06-22T12:45:42;28.30;;;18.40;;
4835;SDS011;66719;51.226;6.902;2023-06-22T12:48:08;26.87;;;18.37;;
4835;SDS011;66719;51.226;6.902;2023-06-22T12:50:35;28.20;;;17.97;;
4835;SDS011;66719;51.226;6.902;2023-06-22T12:53:01;27.93;;;18.73;;
4835;SDS011;66719;51.226;6.902;2023-06-22T12:55:30;26.30;;;19.23;;
4835;SDS011;66719;51.226;6.902;2023-06-22T12:57:56;24.03;;;17.83;;
4835;SDS011;66719;51.226;6.902;2023-06-22T13:00:23;30.63;;;18.40;;
4835;SDS011;66719;51.226;6.902;2023-06-22T13:02:50;25.70;;;18.33;;
4835;SDS011;66719;51.226;6.902;2023-06-22T13:05:16;23.40;;;17.33;;
4835;SDS011;66719;51.226;6.902;2023-06-22T13:07:43;29.13;;;17.83;;
4835;SDS011;66719;51.226;6.902;2023-06-22T13:10:10;24.23;;;16.80;;
4835;SDS011;66719;51.226;6.902;2023-06-22T13:12:36;24.83;;;17.33;;
4835;SDS011;66719;51.226;6.902;2023-06-22T13:15:03;25.80;;;16.93;;
4835;SDS011;66719;51.226;6.902;2023-06-22T13:17:29;27.37;;;17.37;;
4835;SDS011;66719;51.226;6.902;2023-06-22T13:19:56;24.30;;;16.57;;
4835;SDS011;66719;51.226;6.902;2023-06-22T13:22:26;22.23;;;16.67;;
4835;SDS011;66719;51.226;6.902;2023-06-22T13:24:58;23.53;;;17.10;;
4835;SDS011;66719;51.226;6.902;2023-06-22T13:27:25;38.67;;;27.90;;
4835;SDS011;66719;51.226;6.902;2023-06-22T13:29:52;25.50;;;18.73;;
4835;SDS011;66719;51.226;6.902;2023-06-22T13:32:19;25.23;;;16.40;;
4835;SDS011;66719;51.226;6.902;2023-06-22T13:34:46;22.80;;;15.40;;
4835;SDS011;66719;51.226;6.902;2023-06-22T13:37:12;28.03;;;15.70;;
4835;SDS011;66719;51.226;6.902;2023-06-22T13:39:39;23.70;;;15.20;;
4835;SDS011;66719;51.226;6.902;2023-06-22T13:42:05;20.97;;;14.37;;
4835;SDS011;66719;51.226;6.902;2023-06-22T13:44:32;19.87;;;13.07;;
4835;SDS011;66719;51.226;6.902;2023-06-22T13:46:59;21.60;;;13.90;;
4835;SDS011;66719;51.226;6.902;2023-06-22T13:49:26;21.00;;;13.87;;
4835;SDS011;66719;51.226;6.902;2023-06-22T13:51:52;22.10;;;13.70;;
4835;SDS011;66719;51.226;6.902;2023-06-22T13:54:19;22.60;;;14.90;;
4835;SDS011;66719;51.226;6.902;2023-06-22T13:56:48;21.30;;;14.90;;
4835;SDS011;66719;51.226;6.902;2023-06-22T13:59:15;22.60;;;14.17;;
4835;SDS011;66719;51.226;6.902;2023-06-22T14:01:41;22.20;;;13.47;;
4835;SDS011;66719;51.226;6.902;2023-06-22T14:04:09;52.40;;;37.93;;
4835;SDS011;66719;51.226;6.902;2023-06-22T14:06:37;30.60;;;20.17;;
4835;SDS011;66719;51.226;6.902;2023-06-22T14:09:04;24.87;;;15.97;;
4835;SDS011;66719;51.226;6.902;2023-06-22T14:11:31;21.73;;;14.00;;
4835;SDS011;66719;51.226;6.902;2023-06-22T14:13:57;24.80;;;16.17;;
4835;SDS011;66719;51.226;6.902;2023-06-22T14:16:24;22.43;;;15.23;;
4835;SDS011;66719;51.226;6.902;2023-06-22T14:18:51;21.87;;;14.80;;
4835;SDS011;66719;51.226;6.902;2023-06-22T14:21:20;22.57;;;13.80;;
4835;SDS011;66719;51.226;6.902;2023-06-22T14:23:46;24.53;;;15.03;;
4835;SDS011;66719;51.226;6.902;2023-06-22T14:26:15;31.90;;;16.60;;
4835;SDS011;66719;51.226;6.902;2023-06-22T14:28:45;21.90;;;15.73;;
4835;SDS011;66719;51.226;6.902;2023-06-22T14:31:14;21.77;;;15.50;;
4835;SDS011;66719;51.226;6.902;2023-06-22T14:33:45;24.87;;;14.90;;
4835;SDS011;66719;51.226;6.902;2023-06-22T14:36:12;22.60;;;14.53;;
4835;SDS011;66719;51.226;6.902;2023-06-22T14:38:39;23.10;;;15.47;;
4835;SDS011;66719;51.226;6.902;2023-06-22T14:41:06;23.30;;;15.43;;
4835;SDS011;66719;51.226;6.902;2023-06-22T14:43:43;22.00;;;14.73;;
4835;SDS011;66719;51.226;6.902;2023-06-22T14:46:10;21.13;;;14.00;;
4835;SDS011;66719;51.226;6.902;2023-06-22T14:48:36;23.77;;;15.17;;
4835;SDS011;66719;51.226;6.902;2023-06-22T14:51:03;45.33;;;29.07;;
4835;SDS011;66719;51.226;6.902;2023-06-22T14:53:29;23.33;;;14.90;;
4835;SDS011;66719;51.226;6.902;2023-06-22T14:55:56;20.83;;;13.80;;